Time;durP1;ratioP1;P1;durP2;ratioP2;P2;SDS_P1;SDS_P2;PMS_P1;PMS_P2;Temp;Humidity;BMP_temperature;BMP_pressure;BME280_temperature;BME280_humidity;BME280_pressure;Samples;Min_cycle;Max_cycle;Signal;HPM_P1;HPM_P2
2022/04/20 00:00:41;;;;;;;6.23;5.63;;;;;;;6.52;100.00;94987.56;5154027;27;20318;-58
2022/04/20 00:03:07;;;;;;;6.30;5.70;;;;;;;6.59;100.00;94992.19;5154070;27;20177;-58
2022/04/20 00:05:33;;;;;;;6.57;5.57;;;;;;;6.57;100.00;94987.19;5153871;27;20185;-58
2022/04/20 00:08:03;;;;;;;6.47;5.47;;;;;;;6.47;100.00;94990.66;5153827;27;20205;-58
2022/04/20 00:10:30;;;;;;;6.20;5.50;;;;;;;6.37;100.00;94986.00;5154580;27;20186;-58
2022/04/20 00:12:56;;;;;;;7.17;5.67;;;;;;;6.34;100.00;94977.88;5153917;27;20639;-59
2022/04/20 00:15:23;;;;;;;8.90;6.00;;;;;;;6.31;100.00;94984.06;5153952;27;20182;-58
2022/04/20 00:17:48;;;;;;;7.67;5.97;;;;;;;6.24;100.00;94984.06;5153865;27;20270;-59
2022/04/20 00:20:14;;;;;;;7.63;6.27;;;;;;;6.24;100.00;94984.06;5153836;27;20190;-58
2022/04/20 00:22:39;;;;;;;7.03;6.00;;;;;;;6.18;100.00;94977.44;5154107;27;20188;-58
2022/04/20 00:25:05;;;;;;;6.97;6.10;;;;;;;6.20;100.00;94983.28;5146338;27;20202;-58
2022/04/20 00:27:35;;;;;;;6.97;5.93;;;;;;;6.03;100.00;94984.00;5133178;27;20202;-58
2022/04/20 00:30:02;;;;;;;6.67;5.93;;;;;;;6.12;100.00;94982.47;5132826;27;20171;-58
2022/04/20 00:32:29;;;;;;;8.30;6.47;;;;;;;6.12;100.00;94982.47;5132921;27;20232;-57
2022/04/20 00:34:55;;;;;;;7.50;6.03;;;;;;;6.11;100.00;94986.34;5132634;27;20225;-57
2022/04/20 00:37:20;;;;;;;7.03;6.03;;;;;;;5.94;100.00;94975.47;5132764;27;20269;-58
2022/04/20 00:39:45;;;;;;;7.33;5.90;;;;;;;6.00;100.00;94979.34;5123487;28;20183;-59
2022/04/20 00:42:11;;;;;;;7.43;6.10;;;;;;;5.96;100.00;94970.44;5119164;28;20179;-58
2022/04/20 00:44:36;;;;;;;8.17;6.50;;;;;;;5.82;100.00;94978.53;5119432;28;20549;-58
2022/04/20 00:47:03;;;;;;;7.60;6.60;;;;;;;5.83;100.00;94980.09;5119018;28;20202;-58
2022/04/20 00:49:29;;;;;;;9.23;6.80;;;;;;;5.82;100.00;94978.53;5118744;28;20183;-58
2022/04/20 00:51:57;;;;;;;8.33;6.37;;;;;;;5.70;100.00;94976.16;5119133;28;20192;-57
2022/04/20 00:54:24;;;;;;;8.10;6.30;;;;;;;5.67;100.00;94968.78;5118828;28;20211;-56
2022/04/20 00:56:49;;;;;;;7.63;6.47;;;;;;;5.59;100.00;94975.34;5118865;28;20715;-57
2022/04/20 00:59:22;;;;;;;7.47;6.50;;;;;;;5.53;100.00;94966.81;5118886;28;20218;-56
2022/04/20 01:01:49;;;;;;;8.00;6.63;;;;;;;5.42;100.00;94965.19;5119035;28;20220;-57
2022/04/20 01:04:15;;;;;;;8.73;6.30;;;;;;;5.41;100.00;94963.66;5118727;28;20194;-56
2022/04/20 01:06:41;;;;;;;7.47;6.63;;;;;;;5.45;100.00;94969.84;5118721;28;20254;-56
2022/04/20 01:09:06;;;;;;;8.73;6.90;;;;;;;5.31;100.00;94958.97;5118527;28;20222;-58
2022/04/20 01:11:32;;;;;;;8.17;6.60;;;;;;;5.34;100.00;94960.91;5118784;28;20186;-58
2022/04/20 01:13:57;;;;;;;7.00;6.30;;;;;;;5.40;100.00;94959.41;5118571;28;20183;-58
2022/04/20 01:16:24;;;;;;;7.50;6.53;;;;;;;5.37;100.00;94960.94;5118746;28;20210;-58
2022/04/20 01:18:50;;;;;;;7.43;6.30;;;;;;;5.34;100.00;94956.28;5118348;28;20183;-58
2022/04/20 01:21:15;;;;;;;6.90;6.27;;;;;;;5.37;100.00;94962.88;5118498;28;20190;-58
2022/04/20 01:23:42;;;;;;;7.87;6.13;;;;;;;5.37;100.00;94952.81;5118710;28;20186;-58
2022/04/20 01:26:08;;;;;;;8.57;6.63;;;;;;;5.34;100.00;94952.78;5118666;28;20203;-57
2022/04/20 01:28:41;;;;;;;7.97;6.33;;;;;;;5.28;100.00;94954.31;5118624;28;20218;-58
2022/04/20 01:31:07;;;;;;;8.17;6.67;;;;;;;5.30;100.00;94957.41;5118823;28;20178;-58
2022/04/20 01:33:32;;;;;;;7.00;6.00;;;;;;;5.27;100.00;94958.97;5118013;28;20183;-58
2022/04/20 01:35:58;;;;;;;6.90;6.20;;;;;;;5.24;100.00;94958.94;5118730;28;20216;-58
2022/04/20 01:38:23;;;;;;;7.03;6.33;;;;;;;5.23;100.00;94957.38;5118463;28;20198;-58
2022/04/20 01:40:48;;;;;;;8.10;6.63;;;;;;;5.11;100.00;94944.19;5118288;28;20182;-59
2022/04/20 01:43:14;;;;;;;7.37;6.57;;;;;;;4.95;100.00;94946.44;5117993;28;20197;-58
2022/04/20 01:45:39;;;;;;;7.83;6.37;;;;;;;4.85;100.00;94941.72;5118029;28;20212;-58
2022/04/20 01:48:07;;;;;;;6.57;5.90;;;;;;;4.77;100.00;94948.25;5118124;28;20221;-57
2022/04/20 01:50:32;;;;;;;8.73;6.47;;;;;;;4.80;100.00;94942.84;5135316;27;20176;-58
2022/04/20 01:52:58;;;;;;;6.97;5.90;;;;;;;4.89;100.00;94940.59;5117865;28;20256;-58
2022/04/20 01:55:23;;;;;;;7.30;6.40;;;;;;;4.81;100.00;94946.34;5118041;28;20191;-57
2022/04/20 01:57:48;;;;;;;6.73;6.03;;;;;;;4.87;100.00;94940.19;5117684;28;20225;-57
2022/04/20 02:00:16;;;;;;;6.40;5.67;;;;;;;4.82;100.00;94945.19;5118189;28;20191;-57
2022/04/20 02:02:42;;;;;;;6.70;6.00;;;;;;;4.76;100.00;94946.69;5117767;28;20213;-58
2022/04/20 02:05:10;;;;;;;6.73;5.63;;;;;;;4.71;100.00;94941.63;5117884;28;20635;-58
2022/04/20 02:07:36;;;;;;;7.00;6.30;;;;;;;4.69;100.00;94939.31;5117517;28;20203;-56
2022/04/20 02:10:03;;;;;;;7.60;6.33;;;;;;;4.75;100.00;94942.44;5117791;28;20201;-57
2022/04/20 02:12:28;;;;;;;7.33;6.10;;;;;;;4.73;100.00;94947.44;5118010;28;20184;-56
2022/04/20 02:14:54;;;;;;;6.73;6.03;;;;;;;4.65;100.00;94940.41;5117374;28;20223;-57
2022/04/20 02:17:19;;;;;;;6.77;6.07;;;;;;;4.76;100.00;94943.97;5117577;28;20189;-56
2022/04/20 02:19:45;;;;;;;6.57;5.57;;;;;;;4.64;100.00;94941.59;5117712;28;20190;-57
2022/04/20 02:22:10;;;;;;;7.27;5.70;;;;;;;4.69;100.00;94944.72;5117833;28;20187;-58
2022/04/20 02:24:36;;;;;;;7.17;6.27;;;;;;;4.66;100.00;94939.28;5117153;27;20608;-58
2022/04/20 02:27:01;;;;;;;8.43;6.40;;;;;;;4.51;100.00;94948.47;5117098;28;20277;-58
2022/04/20 02:29:26;;;;;;;6.97;5.87;;;;;;;4.47;100.00;94947.63;5117543;28;20284;-59
2022/04/20 02:31:52;;;;;;;6.37;5.53;;;;;;;4.54;100.00;94947.69;5117344;28;20224;-59
2022/04/20 02:34:17;;;;;;;6.90;5.63;;;;;;;4.48;100.00;94943.78;5117244;28;20189;-58
2022/04/20 02:36:42;;;;;;;7.20;6.33;;;;;;;4.43;100.00;94942.22;5117350;28;20190;-58
2022/04/20 02:39:08;;;;;;;6.67;5.97;;;;;;;4.44;100.00;94948.41;5117335;28;20228;-57
2022/04/20 02:41:36;;;;;;;6.57;5.83;;;;;;;4.42;100.00;94945.28;5117094;28;20189;-57
2022/04/20 02:44:03;;;;;;;6.70;6.00;;;;;;;4.35;100.00;94945.22;5117429;28;20622;-59
2022/04/20 02:46:28;;;;;;;8.20;6.20;;;;;;;4.23;100.00;94940.13;5117513;28;20587;-59
2022/04/20 02:48:54;;;;;;;9.27;6.77;;;;;;;4.16;100.00;94942.75;5117157;28;20295;-60
2022/04/20 02:51:19;;;;;;;7.83;6.70;;;;;;;4.12;100.00;94934.63;5117107;28;20189;-59
2022/04/20 02:53:45;;;;;;;6.93;6.23;;;;;;;4.10;100.00;94925.31;5116895;28;20194;-59
2022/04/20 02:56:10;;;;;;;8.07;6.30;;;;;;;3.94;100.00;94936.41;5116963;28;20276;-59
2022/04/20 02:58:36;;;;;;;7.73;6.50;;;;;;;3.97;100.00;94930.22;5117063;28;20197;-58
2022/04/20 03:01:01;;;;;;;9.83;7.03;;;;;;;3.89;100.00;94930.56;5116859;28;20177;-58
2022/04/20 03:03:26;;;;;;;7.70;6.63;;;;;;;3.83;100.00;94934.75;5116736;28;20194;-57
2022/04/20 03:05:53;;;;;;;7.90;7.07;;;;;;;3.90;100.00;94924.78;5116934;28;20188;-58
2022/04/20 03:08:19;;;;;;;9.63;6.83;;;;;;;3.86;100.00;94931.31;5117182;28;20326;-57
2022/04/20 03:10:44;;;;;;;7.70;6.73;;;;;;;3.91;100.00;94929.03;5117192;28;20276;-57
2022/04/20 03:13:09;;;;;;;9.00;6.80;;;;;;;3.93;100.00;94939.47;5116640;28;20188;-57
2022/04/20 03:15:35;;;;;;;9.20;7.30;;;;;;;4.02;100.00;94931.81;5117045;28;20186;-57
2022/04/20 03:18:01;;;;;;;10.37;7.50;;;;;;;3.98;100.00;94941.81;5116539;28;20280;-58
2022/04/20 03:20:26;;;;;;;9.23;7.40;;;;;;;4.02;100.00;94945.34;5116550;28;20193;-58
2022/04/20 03:22:51;;;;;;;8.33;6.90;;;;;;;3.99;100.00;94940.66;5116575;28;20195;-58
2022/04/20 03:25:17;;;;;;;10.73;7.20;;;;;;;3.99;100.00;94937.97;5116604;28;20209;-58
2022/04/20 03:27:42;;;;;;;8.80;7.40;;;;;;;3.98;100.00;94937.22;5116696;28;20203;-58
2022/04/20 03:30:08;;;;;;;12.10;7.13;;;;;;;3.96;100.00;94936.03;5116344;28;20211;-58
2022/04/20 03:32:35;;;;;;;9.40;7.20;;;;;;;4.00;100.00;94934.13;5116332;28;20190;-58
2022/04/20 03:35:00;;;;;;;8.87;7.17;;;;;;;3.98;100.00;94936.41;5116365;28;20245;-56
2022/04/20 03:37:26;;;;;;;9.57;7.70;;;;;;;3.89;100.00;94939.44;5116787;28;20186;-58
2022/04/20 03:39:51;;;;;;;9.13;7.73;;;;;;;3.70;100.00;94952.34;5116809;28;20194;-58
2022/04/20 03:42:17;;;;;;;8.70;7.50;;;;;;;3.83;100.00;94945.53;5116849;28;20250;-58
2022/04/20 03:44:42;;;;;;;9.33;7.87;;;;;;;3.80;100.00;94935.47;5116519;28;20187;-57
2022/04/20 03:47:08;;;;;;;8.90;7.83;;;;;;;3.80;100.00;94948.97;5116870;28;20177;-57
2022/04/20 03:49:34;;;;;;;9.83;8.00;;;;;;;3.76;100.00;94935.44;5116102;28;20191;-57
2022/04/20 03:52:01;;;;;;;10.40;8.10;;;;;;;3.76;100.00;94942.75;5115810;28;20280;-57
2022/04/20 03:54:27;;;;;;;10.47;7.87;;;;;;;3.76;100.00;94940.84;5134446;28;20178;-57
2022/04/20 03:57:04;;;;;;;11.30;8.00;;;;;;;3.80;100.00;94935.47;5116060;28;20227;-57
2022/04/20 03:59:34;;;;;;;10.37;8.60;;;;;;;3.81;100.00;94937.03;5116586;28;20194;-58
2022/04/20 04:02:00;;;;;;;12.00;8.37;;;;;;;3.72;100.00;94931.16;5115571;28;20275;-58
2022/04/20 04:04:26;;;;;;;11.33;8.63;;;;;;;3.56;100.00;94936.00;5116036;28;20224;-58
2022/04/20 04:06:51;;;;;;;10.23;8.50;;;;;;;3.64;100.00;94935.69;5115932;28;20189;-58
2022/04/20 04:09:17;;;;;;;13.63;8.83;;;;;;;3.73;100.00;94943.50;5116173;28;20178;-57
2022/04/20 04:11:42;;;;;;;9.67;8.23;;;;;;;3.73;100.00;94938.09;5116016;28;20192;-58
2022/04/20 04:14:08;;;;;;;10.73;8.43;;;;;;;3.70;100.00;94938.84;5116651;28;20172;-58
2022/04/20 04:16:36;;;;;;;10.93;8.50;;;;;;;3.69;100.00;94945.38;5119836;28;20185;-58
2022/04/20 04:19:03;;;;;;;11.27;9.40;;;;;;;3.61;100.00;94936.47;5119471;28;20188;-59
2022/04/20 04:21:29;;;;;;;11.83;9.57;;;;;;;3.63;100.00;94947.66;5119759;28;20273;-59
2022/04/20 04:23:54;;;;;;;11.37;9.13;;;;;;;3.76;100.00;94950.88;5119694;28;20213;-58
2022/04/20 04:26:19;;;;;;;12.90;9.33;;;;;;;3.69;100.00;94953.50;5119570;28;20209;-59
2022/04/20 04:28:44;;;;;;;11.77;10.00;;;;;;;3.84;100.00;94941.69;5119315;28;20205;-58
2022/04/20 04:31:10;;;;;;;16.10;10.20;;;;;;;3.94;100.00;94946.41;5119270;28;20316;-57
2022/04/20 04:33:35;;;;;;;15.17;11.60;;;;;;;4.05;100.00;94941.88;5119734;28;20263;-60
2022/04/20 04:36:01;;;;;;;15.47;10.63;;;;;;;4.08;100.00;94946.56;5119184;28;20191;-57
2022/04/20 04:38:27;;;;;;;17.13;12.20;;;;;;;4.15;100.00;94941.22;5119071;28;20193;-60
2022/04/20 04:40:53;;;;;;;14.77;11.20;;;;;;;4.47;100.00;94944.94;5118941;28;20193;-58
2022/04/20 04:43:18;;;;;;;15.73;11.63;;;;;;;4.90;100.00;94942.16;5119491;28;20194;-58
2022/04/20 04:48:37;;;;;;;16.50;12.43;;;;;;;5.21;100.00;94933.41;5137605;28;20214;-56
2022/04/20 04:51:07;;;;;;;15.83;12.13;;;;;;;5.73;100.00;94932.06;5119213;28;20186;-60
2022/04/20 04:53:32;;;;;;;16.93;12.47;;;;;;;5.93;100.00;94941.41;5118837;28;20232;-58
2022/04/20 04:55:58;;;;;;;15.03;12.33;;;;;;;5.85;100.00;94940.63;5119211;28;20190;-56
2022/04/20 04:58:24;;;;;;;16.70;12.33;;;;;;;6.26;100.00;94957.31;5118857;28;20191;-58
2022/04/20 05:00:49;;;;;;;16.77;12.47;;;;;;;6.75;100.00;94954.63;5118714;28;20273;-57
2022/04/20 05:03:16;;;;;;;15.67;11.77;;;;;;;6.85;100.00;94959.28;5118784;28;20216;-57
2022/04/20 05:05:42;;;;;;;15.87;13.23;;;;;;;6.52;100.00;94956.97;5136922;28;20191;-57
2022/04/20 05:08:08;;;;;;;16.83;13.10;;;;;;;7.23;100.00;94952.97;5118486;28;20206;-57
2022/04/20 05:10:34;;;;;;;15.87;12.17;;;;;;;7.60;100.00;94955.94;5119485;28;20203;-54
2022/04/20 05:13:00;;;;;;;16.30;12.20;;;;;;;8.30;100.00;94955.59;5118457;28;20183;-55
2022/04/20 05:15:26;;;;;;;16.10;11.77;;;;;;;8.56;100.00;94944.13;5118301;28;20184;-56
2022/04/20 05:17:51;;;;;;;16.13;11.73;;;;;;;8.72;100.00;94949.84;5118350;28;20240;-58
2022/04/20 05:20:19;;;;;;;13.47;12.07;;;;;;;9.13;96.43;94953.34;5119122;28;20280;-52
2022/04/20 05:22:44;;;;;;;12.83;11.23;;;;;;;9.60;91.70;94955.16;5118076;28;20197;-55
2022/04/20 05:25:10;;;;;;;13.23;11.40;;;;;;;9.47;91.17;94956.88;5118045;28;20198;-57
2022/04/20 05:27:35;;;;;;;14.63;11.23;;;;;;;9.79;89.90;94953.75;5118255;28;20205;-56
2022/04/20 05:30:01;;;;;;;13.30;11.10;;;;;;;8.96;92.66;94954.28;5118738;28;20193;-57
2022/04/20 05:32:26;;;;;;;12.17;10.87;;;;;;;9.62;90.66;94954.78;5118231;28;20201;-59
2022/04/20 05:34:52;;;;;;;13.27;11.30;;;;;;;10.24;87.56;94962.56;5118003;28;20188;-57
2022/04/20 05:42:46;;;;;;;12.37;10.77;;;;;;;10.10;85.72;94950.66;5136548;28;20252;-58
2022/04/20 05:45:11;;;;;;;12.97;11.33;;;;;;;10.31;86.61;94960.53;5117722;28;20179;-58
2022/04/20 05:47:38;;;;;;;13.27;11.33;;;;;;;10.69;82.36;94963.81;5117925;28;20274;-58
2022/04/20 05:50:05;;;;;;;14.23;10.33;;;;;;;10.32;83.39;94967.50;5117813;28;20227;-58
2022/04/20 05:52:30;;;;;;;12.57;11.20;;;;;;;11.01;80.00;94966.81;5117904;28;20183;-59
2022/04/20 05:54:57;;;;;;;13.00;10.83;;;;;;;10.36;83.73;94962.00;5118103;28;20197;-58
2022/04/20 05:57:23;;;;;;;13.17;11.23;;;;;;;11.57;78.39;94965.81;5117886;28;20267;-58
2022/04/20 05:59:48;;;;;;;11.60;10.40;;;;;;;11.35;76.31;94975.59;5117613;28;20186;-58
2022/04/20 06:02:13;;;;;;;12.87;11.17;;;;;;;12.46;74.52;94969.06;5117656;28;20183;-55
2022/04/20 06:04:39;;;;;;;11.43;10.23;;;;;;;13.24;69.33;94968.78;5118024;28;20186;-57
2022/04/20 06:07:04;;;;;;;11.53;10.33;;;;;;;12.64;68.67;94969.44;5117690;28;20283;-58
2022/04/20 06:09:30;;;;;;;12.47;11.17;;;;;;;12.41;71.89;94964.88;5117602;28;20171;-59
2022/04/20 06:11:55;;;;;;;14.93;10.93;;;;;;;12.97;69.12;94960.78;5117609;28;20172;-58
2022/04/20 06:14:20;;;;;;;12.03;10.83;;;;;;;13.95;66.10;94968.41;5117596;28;20180;-58
2022/04/20 06:16:46;;;;;;;11.10;10.03;;;;;;;12.87;67.98;94961.06;5117188;28;20184;-57
2022/04/20 06:19:11;;;;;;;12.30;11.00;;;;;;;12.90;67.88;94971.19;5117358;28;20177;-58
2022/04/20 06:21:36;;;;;;;10.97;9.87;;;;;;;12.44;68.76;94965.97;5117167;28;20253;-58
2022/04/20 06:24:02;;;;;;;11.50;10.30;;;;;;;13.50;65.95;94962.22;5117262;28;20189;-58
2022/04/20 06:26:27;;;;;;;11.17;10.00;;;;;;;12.89;66.12;94947.69;5117580;28;20229;-58
2022/04/20 06:28:52;;;;;;;11.07;9.93;;;;;;;12.54;67.04;94948.53;5116978;28;20201;-58
2022/04/20 06:31:18;;;;;;;11.17;10.07;;;;;;;13.53;66.10;94946.88;5116899;28;20273;-58
2022/04/20 06:33:43;;;;;;;12.27;10.97;;;;;;;13.15;65.65;94952.19;5117723;28;20261;-58
2022/04/20 06:36:08;;;;;;;11.33;10.07;;;;;;;14.61;62.01;94940.97;5117675;28;20190;-58
2022/04/20 06:38:34;;;;;;;11.60;10.50;;;;;;;13.88;61.44;94948.66;5116388;28;20190;-58
2022/04/20 06:40:59;;;;;;;11.43;10.23;;;;;;;15.19;58.32;94942.22;5117110;28;20187;-58
2022/04/20 06:43:25;;;;;;;11.63;9.80;;;;;;;15.61;53.85;94949.09;5117124;28;20210;-58
2022/04/20 06:45:50;;;;;;;11.00;9.90;;;;;;;18.02;48.83;94937.16;5116840;28;20176;-58
2022/04/20 06:48:15;;;;;;;10.50;9.33;;;;;;;18.59;45.29;94938.94;5116863;28;20263;-58
2022/04/20 06:50:41;;;;;;;10.27;9.23;;;;;;;19.11;43.56;94933.66;5117705;28;20183;-58
2022/04/20 06:58:41;;;;;;;9.70;8.90;;;;;;;19.37;41.70;94933.97;5135364;28;20274;-55
2022/04/20 07:01:08;;;;;;;10.10;9.20;;;;;;;18.88;43.07;94936.38;5116750;28;20201;-58
2022/04/20 07:03:34;;;;;;;10.27;9.33;;;;;;;20.02;40.41;94931.03;5116976;28;20608;-59
2022/04/20 07:06:01;;;;;;;9.77;8.87;;;;;;;20.23;38.14;94937.50;5116943;28;20180;-58
2022/04/20 07:08:27;;;;;;;9.73;8.60;;;;;;;20.68;37.98;94929.47;5116496;28;20245;-58
2022/04/20 07:10:53;;;;;;;10.23;9.07;;;;;;;21.64;36.03;94925.63;5116471;28;20179;-59
2022/04/20 07:13:19;;;;;;;9.60;8.70;;;;;;;19.68;38.16;94937.19;5116779;28;20274;-58
2022/04/20 07:15:45;;;;;;;9.80;8.90;;;;;;;20.30;39.17;94932.34;5116983;28;20248;-51
2022/04/20 07:18:10;;;;;;;9.13;8.27;;;;;;;20.26;37.13;94933.78;5116351;28;20261;-57
2022/04/20 07:20:36;;;;;;;9.40;8.40;;;;;;;19.53;38.21;94930.81;5116604;28;20232;-58
2022/04/20 07:23:01;;;;;;;9.47;8.33;;;;;;;19.80;38.14;94927.06;5116886;28;20211;-58
2022/04/20 07:25:26;;;;;;;9.27;8.37;;;;;;;20.94;36.56;94930.44;5116213;28;20249;-57
2022/04/20 07:27:52;;;;;;;9.10;8.20;;;;;;;20.88;37.32;94924.00;5115983;28;20239;-58
2022/04/20 07:30:18;;;;;;;8.90;8.00;;;;;;;19.23;39.39;94929.13;5116320;28;20191;-58
2022/04/20 07:32:44;;;;;;;9.60;8.70;;;;;;;18.30;40.50;94933.16;5116740;28;20190;-59
2022/04/20 07:35:10;;;;;;;8.93;8.13;;;;;;;18.41;40.64;94931.47;5116218;28;20178;-58
2022/04/20 07:37:35;;;;;;;8.77;7.80;;;;;;;20.07;37.62;94924.81;5116304;28;20549;-54
2022/04/20 07:40:00;;;;;;;9.00;8.00;;;;;;;18.69;39.46;94937.69;5115942;28;20224;-56
2022/04/20 07:42:26;;;;;;;9.17;8.27;;;;;;;19.34;38.32;94929.41;5115920;28;20415;-56
2022/04/20 07:44:54;;;;;;;8.23;7.53;;;;;;;21.54;35.07;94927.78;5116842;28;20266;-56
2022/04/20 07:47:22;;;;;;;8.23;7.43;;;;;;;20.51;35.27;94931.22;5116693;28;20526;-56
2022/04/20 07:52:43;;;;;;;8.03;7.23;;;;;;;20.57;34.87;94934.84;5138476;28;20170;-59
2022/04/20 07:55:10;;;;;;;7.33;6.63;;;;;;;21.13;33.74;94934.50;5119751;28;20204;-58
2022/04/20 07:57:36;;;;;;;8.37;7.47;;;;;;;20.82;33.34;94934.25;5119988;28;20202;-60
2022/04/20 08:00:04;;;;;;;7.50;6.77;;;;;;;19.74;34.68;94931.75;5119903;28;20176;-59
2022/04/20 08:02:29;;;;;;;9.27;7.37;;;;;;;18.69;36.24;94932.91;5119656;28;20186;-58
2022/04/20 08:04:55;;;;;;;8.10;7.27;;;;;;;20.55;34.48;94920.69;5119652;28;20179;-59
2022/04/20 08:07:20;;;;;;;7.50;6.80;;;;;;;19.56;35.89;94935.44;5119645;28;20297;-59
2022/04/20 08:09:46;;;;;;;7.40;6.60;;;;;;;18.37;36.09;94936.41;5119841;28;20187;-58
2022/04/20 08:12:11;;;;;;;7.67;6.70;;;;;;;17.18;38.95;94936.03;5119993;28;20213;-59
2022/04/20 08:14:37;;;;;;;7.80;7.00;;;;;;;18.90;36.63;94944.97;5119426;28;20228;-59
2022/04/20 08:17:02;;;;;;;8.43;7.17;;;;;;;18.01;36.76;94941.94;5119417;28;20194;-60
2022/04/20 08:19:28;;;;;;;7.03;6.23;;;;;;;17.69;37.68;94947.31;5119422;28;20228;-59
2022/04/20 08:21:55;;;;;;;9.03;7.00;;;;;;;18.34;36.70;94953.88;5119657;28;20187;-60
2022/04/20 08:24:21;;;;;;;7.70;7.00;;;;;;;19.12;35.69;94934.41;5119218;27;20189;-58
2022/04/20 08:26:46;;;;;;;8.57;6.90;;;;;;;20.26;34.23;94945.66;5119319;28;20273;-58
2022/04/20 08:29:11;;;;;;;6.60;6.00;;;;;;;19.16;33.52;94951.63;5119112;28;20202;-55
2022/04/20 08:31:37;;;;;;;7.50;5.93;;;;;;;19.43;33.63;94943.97;5119321;28;20591;-59
2022/04/20 08:34:03;;;;;;;8.20;6.50;;;;;;;20.21;33.11;94940.75;5119064;28;20179;-59
2022/04/20 08:36:28;;;;;;;7.07;6.37;;;;;;;21.26;32.63;94934.19;5119088;28;20175;-58
2022/04/20 08:38:53;;;;;;;6.87;6.23;;;;;;;21.87;30.71;94922.66;5119446;28;20183;-60
2022/04/20 08:41:19;;;;;;;7.53;6.73;;;;;;;21.21;31.27;94929.31;5119362;28;20187;-58
2022/04/20 08:43:45;;;;;;;6.70;6.07;;;;;;;20.66;32.12;94920.88;5118856;28;20195;-58
2022/04/20 08:46:11;;;;;;;6.87;6.20;;;;;;;21.26;30.75;94923.84;5119222;28;20251;-56
2022/04/20 08:48:37;;;;;;;7.47;6.43;;;;;;;21.81;31.48;94932.94;5118831;28;20203;-59
2022/04/20 08:51:06;;;;;;;7.33;6.30;;;;;;;19.66;33.87;94928.56;5119421;28;20239;-58
2022/04/20 08:53:32;;;;;;;7.10;6.40;;;;;;;21.14;32.14;94938.84;5119345;28;20183;-58
2022/04/20 08:58:46;;;;;;;7.80;7.00;;;;;;;19.54;34.41;94937.88;5137621;28;20194;-58
2022/04/20 09:01:13;;;;;;;8.50;6.77;;;;;;;20.78;32.84;94922.59;5118039;28;20279;-58
2022/04/20 09:03:39;;;;;;;6.97;6.27;;;;;;;20.40;34.51;94922.69;5118333;28;20195;-59
2022/04/20 09:06:05;;;;;;;11.60;6.13;;;;;;;20.94;32.19;94916.53;5118691;28;20270;-54
2022/04/20 09:08:31;;;;;;;6.83;5.40;;;;;;;19.64;33.32;94914.44;5118588;28;20633;-57
2022/04/20 09:10:57;;;;;;;6.10;5.23;;;;;;;20.26;32.86;94915.16;5118808;28;20214;-58
2022/04/20 09:13:35;;;;;;;6.60;5.23;;;;;;;20.06;31.55;94920.53;5118481;28;20236;-58
2022/04/20 09:16:08;;;;;;;6.37;5.07;;;;;;;20.28;31.48;94926.50;5118455;28;20208;-58
2022/04/20 09:18:34;;;;;;;5.30;4.80;;;;;;;18.68;32.78;94927.84;5118681;28;20190;-60
2022/04/20 09:21:15;;;;;;;5.33;4.80;;;;;;;19.38;32.52;94919.66;5118430;28;20183;-59
2022/04/20 09:23:41;;;;;;;5.27;4.77;;;;;;;18.05;33.70;94914.13;5118215;28;20231;-56
2022/04/20 09:26:11;;;;;;;5.07;4.57;;;;;;;18.50;33.58;94919.63;5118334;28;20203;-52
2022/04/20 09:28:42;;;;;;;4.83;4.43;;;;;;;18.35;32.20;94907.66;5118632;28;20195;-53
2022/04/20 09:31:09;;;;;;;5.33;4.60;;;;;;;19.44;31.16;94911.47;5118424;28;20266;-54
2022/04/20 09:33:54;;;;;;;5.40;4.83;;;;;;;19.46;31.78;94914.56;5118067;28;20175;-54
2022/04/20 09:36:45;;;;;;;4.60;4.03;;;;;;;21.22;29.98;94903.84;5118233;28;20258;-52
2022/04/20 09:39:12;;;;;;;4.80;4.33;;;;;;;20.88;30.24;94903.81;5118479;28;20240;-52
2022/04/20 09:41:59;;;;;;;5.30;4.80;;;;;;;19.28;31.63;94904.38;5118180;28;20191;-54
2022/04/20 09:44:25;;;;;;;5.90;4.87;;;;;;;19.77;31.43;94906.59;5117830;28;20201;-58
2022/04/20 09:49:57;;;;;;;5.03;4.53;;;;;;;19.68;31.28;94909.47;5136815;28;20198;-59
2022/04/20 09:52:24;;;;;;;6.80;4.60;;;;;;;19.62;30.50;94905.81;5117752;28;20182;-58
2022/04/20 09:54:55;;;;;;;4.47;4.07;;;;;;;19.48;30.36;94895.44;5117935;28;20182;-57
2022/04/20 09:57:21;;;;;;;5.00;4.50;;;;;;;19.50;30.36;94898.53;5118031;28;20662;-58
2022/04/20 09:59:59;;;;;;;5.43;4.57;;;;;;;19.06;31.05;94892.00;5135880;28;20179;-55
2022/04/20 10:02:25;;;;;;;5.13;4.10;;;;;;;19.31;30.49;94888.81;5118449;28;20201;-52
2022/04/20 10:04:52;;;;;;;4.67;4.20;;;;;;;19.93;29.06;94900.63;5118067;28;20187;-58
2022/04/20 10:07:18;;;;;;;4.73;4.23;;;;;;;19.93;29.42;94892.31;5117793;28;20715;-58
2022/04/20 10:09:46;;;;;;;5.10;4.23;;;;;;;20.87;28.62;94886.38;5117738;28;20206;-59
2022/04/20 10:12:15;;;;;;;5.20;4.53;;;;;;;20.23;28.80;94893.91;5116541;28;20198;-58
2022/04/20 10:17:26;;;;;;;5.60;4.70;;;;;;;19.48;29.66;94892.66;5136380;28;20190;-57
2022/04/20 10:19:56;;;;;;;5.43;4.93;;;;;;;20.48;28.43;94887.78;5117452;28;20183;-54
2022/04/20 10:22:23;;;;;;;6.30;5.17;;;;;;;19.49;28.61;94897.00;5118016;28;20273;-56
2022/04/20 10:24:55;;;;;;;6.13;5.23;;;;;;;19.28;29.68;94881.44;5117849;28;20206;-56
2022/04/20 10:27:39;;;;;;;6.80;5.73;;;;;;;19.82;29.70;94886.56;5117368;28;20180;-55
2022/04/20 10:30:14;;;;;;;6.53;5.87;;;;;;;19.95;28.91;94878.72;5117072;28;20191;-56
2022/04/20 10:32:55;;;;;;;7.03;6.20;;;;;;;20.10;29.25;94879.53;5117699;28;20213;-55
2022/04/20 10:35:21;;;;;;;7.70;6.90;;;;;;;19.57;29.88;94892.63;5117688;28;20240;-56
2022/04/20 10:38:09;;;;;;;7.20;6.37;;;;;;;19.40;29.98;94877.66;5117320;28;20207;-57
2022/04/20 10:40:54;;;;;;;8.23;6.90;;;;;;;20.17;29.55;94856.97;5116994;28;20194;-59
2022/04/20 10:43:21;;;;;;;6.67;5.87;;;;;;;20.68;27.59;94856.56;5117409;28;20190;-58
2022/04/20 10:46:06;;;;;;;6.63;5.47;;;;;;;21.79;26.69;94846.50;5117497;28;20187;-58
2022/04/20 10:48:48;;;;;;;6.97;5.83;;;;;;;21.92;26.87;94841.31;5116909;28;20218;-57
2022/04/20 10:51:15;;;;;;;6.70;6.00;;;;;;;21.88;27.06;94846.31;5117068;28;20340;-58
2022/04/20 10:53:43;;;;;;;8.53;6.30;;;;;;;21.64;27.09;94853.34;5116786;28;20183;-58
2022/04/20 10:56:09;;;;;;;7.10;6.40;;;;;;;21.24;26.74;94853.34;5116977;28;20190;-58
2022/04/20 10:58:35;;;;;;;6.57;5.90;;;;;;;21.55;26.10;94840.34;5117457;28;20194;-59
2022/04/20 11:01:11;;;;;;;8.67;6.37;;;;;;;23.58;25.16;94837.75;5116888;28;20202;-59
2022/04/20 11:04:02;;;;;;;7.53;5.93;;;;;;;22.62;25.35;94835.38;5116617;28;20186;-59
2022/04/20 11:06:29;;;;;;;6.47;5.87;;;;;;;22.72;25.69;94842.31;5116840;28;20266;-58
2022/04/20 11:09:00;;;;;;;8.33;6.70;;;;;;;21.75;26.38;94825.72;5116879;28;20286;-58
2022/04/20 11:20:07;;;;;;;7.47;6.67;;;;;;;21.07;26.53;94819.81;5135189;28;20216;-55
2022/04/20 11:22:44;;;;;;;6.60;6.00;;;;;;;20.49;28.50;94822.72;5116607;27;20211;-55
2022/04/20 11:25:10;;;;;;;7.77;6.40;;;;;;;19.43;29.17;94815.78;5116689;28;20237;-56
2022/04/20 11:27:36;;;;;;;7.07;6.13;;;;;;;19.60;29.86;94821.63;5116343;28;20239;-56
2022/04/20 11:30:04;;;;;;;6.70;6.07;;;;;;;19.38;30.26;94819.22;5116453;28;20178;-56
2022/04/20 11:32:30;;;;;;;7.50;6.70;;;;;;;18.17;32.02;94806.16;5116329;28;20189;-53
2022/04/20 11:35:11;;;;;;;7.07;6.37;;;;;;;18.31;32.65;94804.72;5116630;28;20186;-59
2022/04/20 11:37:39;;;;;;;6.20;5.60;;;;;;;18.04;33.14;94808.38;5117023;28;20183;-59
2022/04/20 11:40:12;;;;;;;6.87;6.17;;;;;;;17.47;33.60;94808.63;5116375;28;20285;-59
2022/04/20 11:42:37;;;;;;;6.80;6.10;;;;;;;16.76;32.37;94805.38;5134426;28;20186;-59
2022/04/20 11:45:03;;;;;;;6.83;6.23;;;;;;;15.78;34.42;94810.00;5116215;28;20546;-58
2022/04/20 11:47:28;;;;;;;6.30;5.70;;;;;;;16.05;34.62;94814.88;5116142;28;20191;-59
2022/04/20 11:49:55;;;;;;;8.10;6.30;;;;;;;16.04;33.62;94805.88;5115944;28;20199;-53
2022/04/20 11:52:21;;;;;;;7.00;6.30;;;;;;;16.13;33.68;94797.63;5116277;28;20187;-55
2022/04/20 11:54:47;;;;;;;7.33;5.70;;;;;;;16.11;35.24;94802.81;5116828;28;20179;-51
2022/04/20 11:57:15;;;;;;;7.67;5.40;;;;;;;15.68;34.88;94800.19;5115996;28;20190;-54
2022/04/20 11:59:45;;;;;;;6.50;5.83;;;;;;;15.28;35.70;94802.03;5115789;28;20184;-53
2022/04/20 12:02:15;;;;;;;6.43;5.60;;;;;;;15.04;35.70;94802.91;5116101;28;20214;-54